Terminal Aerodrome Forecast
Issued by NWS

Home | Current Version | Previous Version | Text Only | Print | Product List | Glossary On
Versions: 1 2 3 4 5 6 7 8 9 10 11 12 13 14
000
FTUS45 KGGW 011739 AAA
TAFGDV
TAF AMD
KGDV 011739Z 0118/0218 22013KT P6SM BKN050 BKN060
     FM012100 24015KT P6SM VCSH OVC035
     FM020100 28012G22KT P6SM VCSH BKN060
     FM020300 29013G21KT P6SM BKN110
     FM021300 31009KT P6SM BKN150=

USA.gov is the U.S. government's official web portal to all federal, state and local government web resources and services.